createdAt,value
2023-05-15T00:00:24.177Z,9.70
2023-05-15T00:01:24.168Z,9.88
2023-05-15T00:02:24.270Z,9.86
2023-05-15T00:03:24.198Z,9.88
2023-05-15T00:04:24.188Z,9.76
2023-05-15T00:05:24.310Z,9.85
2023-05-15T00:06:24.106Z,9.78
2023-05-15T00:07:24.115Z,9.79
2023-05-15T00:08:24.107Z,9.73
2023-05-15T00:09:24.101Z,9.73
2023-05-15T00:10:24.068Z,9.70
2023-05-15T00:11:24.068Z,9.82
2023-05-15T00:12:24.044Z,9.75
2023-05-15T00:13:24.037Z,9.71
2023-05-15T00:14:24.026Z,9.76
2023-05-15T00:15:24.287Z,9.76
2023-05-15T00:16:24.046Z,9.68
2023-05-15T00:17:23.996Z,9.70
2023-05-15T00:18:23.981Z,9.66
2023-05-15T00:19:23.971Z,9.70
2023-05-15T00:20:24.008Z,9.75
2023-05-15T00:21:23.992Z,9.75
2023-05-15T00:22:23.959Z,9.71
2023-05-15T00:23:23.950Z,9.53
2023-05-15T00:24:23.932Z,9.63
2023-05-15T00:25:24.066Z,9.73
2023-05-15T00:26:23.951Z,9.64
2023-05-15T00:27:23.958Z,9.70
2023-05-15T00:28:23.895Z,9.64
2023-05-15T00:29:23.880Z,9.70
2023-05-15T00:30:23.895Z,9.56
2023-05-15T00:31:23.901Z,9.56
2023-05-15T00:32:23.869Z,9.52
2023-05-15T00:33:23.847Z,9.56
2023-05-15T00:34:24.846Z,9.61
2023-05-15T00:35:23.982Z,9.58
2023-05-15T00:36:23.816Z,9.56
2023-05-15T00:37:23.866Z,9.58
2023-05-15T00:38:23.800Z,9.43
2023-05-15T00:39:23.798Z,9.48
2023-05-15T00:40:23.802Z,9.35
2023-05-15T00:41:23.767Z,9.31
2023-05-15T00:42:23.754Z,9.32
2023-05-15T00:43:23.753Z,9.35
2023-05-15T00:44:23.730Z,9.31
2023-05-15T00:45:23.894Z,9.31
2023-05-15T00:46:23.740Z,9.28
2023-05-15T00:47:23.723Z,9.10
2023-05-15T00:48:23.698Z,9.06
2023-05-15T00:49:23.715Z,9.12
2023-05-15T00:50:23.686Z,9.13
2023-05-15T00:51:23.666Z,9.18
2023-05-15T00:52:23.695Z,9.30
2023-05-15T00:53:23.660Z,9.21
2023-05-15T00:54:23.657Z,9.21
2023-05-15T00:55:23.681Z,9.15
2023-05-15T00:56:23.625Z,9.10
2023-05-15T00:57:23.611Z,9.10
2023-05-15T00:58:23.595Z,9.09
2023-05-15T00:59:23.599Z,9.20
2023-05-15T01:00:23.593Z,9.13
2023-05-15T01:01:23.585Z,9.13
2023-05-15T01:02:23.602Z,9.09
2023-05-15T01:03:23.605Z,9.18
2023-05-15T01:04:23.570Z,9.13
2023-05-15T01:05:23.722Z,9.28
2023-05-15T01:06:23.515Z,9.24
2023-05-15T01:07:23.522Z,9.18
2023-05-15T01:08:23.511Z,9.18
2023-05-15T01:09:24.478Z,9.15
2023-05-15T01:10:23.477Z,9.15
2023-05-15T01:11:23.466Z,9.16
2023-05-15T01:12:23.476Z,9.05
2023-05-15T01:13:23.457Z,9.06
2023-05-15T01:14:23.449Z,8.94
2023-05-15T01:15:23.509Z,9.05
2023-05-15T01:16:23.417Z,9.04
2023-05-15T01:17:23.431Z,8.84
2023-05-15T01:18:23.567Z,8.94
2023-05-15T01:19:23.508Z,8.94
2023-05-15T01:20:23.369Z,8.88
2023-05-15T01:21:23.388Z,8.86
2023-05-15T01:22:23.375Z,8.83
2023-05-15T01:23:23.351Z,8.81
2023-05-15T01:24:23.341Z,8.86
2023-05-15T01:25:23.516Z,8.84
2023-05-15T01:26:23.360Z,8.68
2023-05-15T01:27:23.307Z,8.62
2023-05-15T01:28:23.292Z,8.62
2023-05-15T01:29:23.274Z,8.50
2023-05-15T01:30:23.269Z,8.47
2023-05-15T01:31:23.290Z,8.39
2023-05-15T01:32:23.300Z,8.45
2023-05-15T01:33:23.252Z,8.45
2023-05-15T01:34:23.245Z,8.45
2023-05-15T01:35:23.691Z,8.36
2023-05-15T01:36:23.236Z,8.39
2023-05-15T01:37:23.204Z,8.39
2023-05-15T01:38:23.194Z,8.47
2023-05-15T01:39:23.231Z,8.53
2023-05-15T01:40:24.170Z,8.54
2023-05-15T01:41:23.175Z,8.53
2023-05-15T01:42:23.156Z,8.62
2023-05-15T01:43:23.133Z,8.68
2023-05-15T01:44:23.134Z,8.65
2023-05-15T01:45:23.280Z,8.62
2023-05-15T01:46:23.180Z,8.68
2023-05-15T01:47:23.168Z,8.65
2023-05-15T01:48:23.085Z,8.68
2023-05-15T01:49:23.110Z,8.75
2023-05-15T01:50:23.098Z,8.79
2023-05-15T01:51:23.060Z,8.75
2023-05-15T01:52:23.074Z,8.73
2023-05-15T01:53:23.040Z,8.63
2023-05-15T01:54:23.064Z,8.76
2023-05-15T01:56:23.010Z,8.79
2023-05-15T01:57:23.002Z,8.73
2023-05-15T01:58:22.989Z,8.69
2023-05-15T01:59:23.006Z,8.68
2023-05-15T02:00:22.982Z,8.65
2023-05-15T02:01:22.977Z,8.68
2023-05-15T02:02:23.035Z,8.55
2023-05-15T02:03:23.014Z,8.63
2023-05-15T02:04:23.078Z,8.66
2023-05-15T02:05:23.051Z,8.54
2023-05-15T02:06:22.903Z,8.60
2023-05-15T02:07:22.891Z,8.48
2023-05-15T02:08:22.877Z,8.51
2023-05-15T02:09:22.889Z,8.54
2023-05-15T02:10:22.866Z,8.51
2023-05-15T02:11:22.857Z,8.51
2023-05-15T02:12:22.882Z,8.53
2023-05-15T02:13:22.850Z,8.55
2023-05-15T02:14:22.844Z,8.55
2023-05-15T02:15:23.149Z,8.60
2023-05-15T02:16:22.879Z,8.47
2023-05-15T02:17:22.807Z,8.47
2023-05-15T02:18:22.792Z,8.28
2023-05-15T02:19:22.767Z,8.25
2023-05-15T02:20:22.770Z,8.20
2023-05-15T02:21:22.754Z,8.14
2023-05-15T02:22:22.729Z,8.18
2023-05-15T02:23:22.745Z,8.10
2023-05-15T02:24:22.711Z,8.11
2023-05-15T02:25:22.842Z,8.10
2023-05-15T02:26:22.708Z,8.18
2023-05-15T02:27:22.736Z,8.18
2023-05-15T02:28:22.718Z,8.26
2023-05-15T02:29:22.659Z,8.15
2023-05-15T02:30:22.652Z,8.15
2023-05-15T02:31:24.394Z,8.20
2023-05-15T02:32:22.727Z,8.21
2023-05-15T02:33:22.613Z,8.20
2023-05-15T02:34:22.598Z,8.26
2023-05-15T02:35:22.670Z,8.28
2023-05-15T02:36:22.588Z,8.21
2023-05-15T02:37:22.596Z,8.21
2023-05-15T02:38:22.560Z,8.26
2023-05-15T02:39:22.552Z,8.15
2023-05-15T02:40:22.533Z,8.21
2023-05-15T02:41:22.595Z,8.10
2023-05-15T02:42:22.551Z,8.14
2023-05-15T02:43:22.515Z,8.11
2023-05-15T02:44:22.503Z,7.97
2023-05-15T02:45:22.495Z,8.07
2023-05-15T02:46:22.534Z,8.02
2023-05-15T02:47:22.503Z,8.08
2023-05-15T02:48:22.453Z,8.04
2023-05-15T02:49:22.455Z,8.02
2023-05-15T02:50:22.432Z,7.97
2023-05-15T02:51:22.455Z,7.99
2023-05-15T02:52:22.411Z,8.02
2023-05-15T02:53:22.405Z,8.02
2023-05-15T02:54:22.405Z,8.07
2023-05-15T02:55:22.482Z,8.04
2023-05-15T02:56:22.431Z,8.07
2023-05-15T02:57:22.358Z,8.10
2023-05-15T02:58:22.354Z,8.15
2023-05-15T02:59:22.345Z,8.11
2023-05-15T03:00:22.433Z,7.99
2023-05-15T03:01:22.372Z,7.93
2023-05-15T03:02:22.341Z,8.08
2023-05-15T03:03:22.299Z,8.10
2023-05-15T03:04:22.353Z,8.10
2023-05-15T03:05:22.342Z,8.08
2023-05-15T03:06:22.270Z,8.15
2023-05-15T03:07:22.253Z,8.14
2023-05-15T03:08:22.265Z,8.20
2023-05-15T03:09:22.261Z,8.21
2023-05-15T03:10:22.250Z,8.22
2023-05-15T03:11:22.238Z,8.36
2023-05-15T03:12:22.205Z,8.30
2023-05-15T03:13:22.190Z,8.15
2023-05-15T03:14:22.205Z,8.26
2023-05-15T03:15:22.163Z,8.32
2023-05-15T03:16:22.209Z,8.22
2023-05-15T03:17:22.158Z,8.25
2023-05-15T03:18:22.138Z,8.39
2023-05-15T03:19:22.166Z,8.32
2023-05-15T03:20:22.112Z,8.35
2023-05-15T03:21:23.111Z,8.40
2023-05-15T03:22:22.097Z,8.44
2023-05-15T03:23:22.105Z,8.33
2023-05-15T03:24:22.094Z,8.37
2023-05-15T03:25:22.105Z,8.30
2023-05-15T03:26:22.073Z,8.37
2023-05-15T03:27:22.048Z,8.32
2023-05-15T03:28:22.046Z,8.28
2023-05-15T03:29:22.030Z,8.36
2023-05-15T03:30:22.010Z,8.28
2023-05-15T03:31:22.010Z,8.33
2023-05-15T03:32:22.012Z,8.30
2023-05-15T03:33:23.013Z,8.22
2023-05-15T03:34:21.974Z,8.40
2023-05-15T03:35:22.053Z,8.44
2023-05-15T03:36:21.949Z,8.28
2023-05-15T03:37:21.964Z,8.37
2023-05-15T03:38:22.001Z,8.15
2023-05-15T03:39:21.926Z,8.11
2023-05-15T03:40:21.910Z,7.94
2023-05-15T03:41:21.903Z,7.84
2023-05-15T03:42:21.905Z,7.89
2023-05-15T03:43:21.886Z,7.81
2023-05-15T03:44:21.882Z,7.82
2023-05-15T03:45:21.865Z,7.93
2023-05-15T03:46:21.884Z,7.92
2023-05-15T03:47:21.885Z,7.94
2023-05-15T03:48:21.826Z,8.08
2023-05-15T03:49:21.828Z,8.02
2023-05-15T03:50:21.801Z,8.11
2023-05-15T03:51:21.812Z,8.20
2023-05-15T03:52:21.797Z,8.12
2023-05-15T03:53:21.769Z,8.20
2023-05-15T03:54:21.756Z,8.20
2023-05-15T03:55:21.773Z,8.08
2023-05-15T03:56:21.780Z,8.33
2023-05-15T03:57:21.737Z,8.29
2023-05-15T03:58:21.720Z,8.14
2023-05-15T03:59:21.720Z,8.28
2023-05-15T04:00:21.713Z,8.21
2023-05-15T04:01:21.723Z,8.33
2023-05-15T04:02:21.771Z,8.33
2023-05-15T04:03:21.828Z,8.40
2023-05-15T04:04:21.659Z,8.39
2023-05-15T04:05:21.822Z,8.47
2023-05-15T04:06:21.674Z,8.40
2023-05-15T04:07:21.631Z,8.48
2023-05-15T04:08:21.630Z,8.54
2023-05-15T04:09:21.628Z,8.51
2023-05-15T04:10:21.631Z,8.62
2023-05-15T04:11:21.605Z,8.57
2023-05-15T04:12:21.622Z,8.54
2023-05-15T04:13:21.560Z,8.58
2023-05-15T04:14:21.555Z,8.54
2023-05-15T04:15:21.705Z,8.69
2023-05-15T04:16:21.598Z,8.78
2023-05-15T04:17:21.574Z,8.79
2023-05-15T04:18:21.530Z,8.78
2023-05-15T04:19:21.562Z,8.93
2023-05-15T04:20:22.493Z,8.99
2023-05-15T04:21:21.512Z,8.84
2023-05-15T04:22:21.476Z,8.88
2023-05-15T04:23:21.467Z,8.93
2023-05-15T04:24:21.480Z,8.97
2023-05-15T04:25:21.445Z,9.05
2023-05-15T04:26:21.443Z,9.06
2023-05-15T04:27:21.425Z,9.18
2023-05-15T04:28:21.440Z,9.25
2023-05-15T04:29:21.489Z,9.30
2023-05-15T04:30:21.397Z,9.31
2023-05-15T04:31:21.424Z,9.32
2023-05-15T04:32:21.373Z,9.34
2023-05-15T04:33:21.418Z,9.31
2023-05-15T04:34:21.387Z,9.31
2023-05-15T04:35:21.348Z,9.24
2023-05-15T04:36:21.328Z,9.18
2023-05-15T04:37:21.322Z,9.23
2023-05-15T04:38:47.260Z,9.09
2023-05-15T04:39:21.304Z,9.09
2023-05-15T04:40:21.298Z,9.12
2023-05-15T04:41:21.294Z,9.21
2023-05-15T04:42:21.276Z,9.34
2023-05-15T04:43:21.288Z,9.45
2023-05-15T04:44:21.282Z,9.61
2023-05-15T04:45:21.289Z,9.63
2023-05-15T04:46:21.264Z,9.67
2023-05-15T04:47:22.276Z,9.78
2023-05-15T04:48:21.243Z,9.68
2023-05-15T04:49:21.215Z,9.76
2023-05-15T04:50:21.218Z,9.76
2023-05-15T04:51:21.208Z,9.86
2023-05-15T04:52:21.232Z,9.97
2023-05-15T04:53:21.177Z,9.99
2023-05-15T04:54:21.156Z,10.12
2023-05-15T04:55:21.147Z,10.22
2023-05-15T04:56:21.143Z,10.37
2023-05-15T04:57:21.146Z,10.39
2023-05-15T04:58:21.126Z,10.43
2023-05-15T04:59:21.112Z,10.56
2023-05-15T05:00:21.132Z,10.63
2023-05-15T05:01:21.178Z,10.71
2023-05-15T05:02:21.128Z,10.77
2023-05-15T05:03:21.098Z,10.88
2023-05-15T05:04:21.117Z,10.94
2023-05-15T05:05:21.049Z,10.99
2023-05-15T05:06:21.061Z,10.99
2023-05-15T05:07:21.029Z,11.01
2023-05-15T05:08:21.027Z,11.06
2023-05-15T05:09:21.014Z,11.11
2023-05-15T05:10:20.999Z,11.16
2023-05-15T05:11:21.015Z,11.19
2023-05-15T05:12:20.971Z,11.21
2023-05-15T05:13:20.988Z,11.29
2023-05-15T05:14:20.968Z,11.32
2023-05-15T05:15:20.968Z,11.34
2023-05-15T05:16:21.028Z,11.31
2023-05-15T05:17:20.919Z,11.28
2023-05-15T05:18:20.926Z,11.35
2023-05-15T05:19:20.917Z,11.36
2023-05-15T05:20:20.918Z,11.44
2023-05-15T05:21:20.907Z,11.43
2023-05-15T05:22:20.887Z,11.43
2023-05-15T05:23:20.892Z,11.49
2023-05-15T05:24:20.875Z,11.70
2023-05-15T05:25:20.869Z,11.62
2023-05-15T05:26:20.856Z,11.72
2023-05-15T05:27:20.838Z,11.83
2023-05-15T05:28:20.828Z,11.80
2023-05-15T05:29:20.829Z,11.90
2023-05-15T05:30:20.835Z,11.89
2023-05-15T05:31:20.838Z,11.93
2023-05-15T05:32:20.843Z,11.90
2023-05-15T05:33:20.797Z,11.99
2023-05-15T05:34:20.785Z,11.93
2023-05-15T05:35:20.753Z,11.97
2023-05-15T05:36:21.743Z,11.90
2023-05-15T05:37:20.748Z,11.72
2023-05-15T05:38:20.723Z,11.80
2023-05-15T05:39:20.733Z,11.71
2023-05-15T05:40:20.724Z,11.64
2023-05-15T05:41:20.715Z,11.62
2023-05-15T05:42:20.689Z,11.62
2023-05-15T05:43:20.702Z,11.70
2023-05-15T05:44:20.699Z,11.72
2023-05-15T05:45:20.686Z,11.83
2023-05-15T05:46:20.670Z,11.75
2023-05-15T05:47:20.712Z,11.65
2023-05-15T05:48:20.635Z,11.64
2023-05-15T05:49:20.613Z,11.77
2023-05-15T05:50:20.604Z,11.75
2023-05-15T05:51:20.589Z,11.71
2023-05-15T05:52:20.594Z,11.70
2023-05-15T05:53:20.607Z,11.61
2023-05-15T05:54:20.567Z,11.47
2023-05-15T05:55:20.563Z,11.62
2023-05-15T05:56:20.542Z,11.57
2023-05-15T05:57:20.577Z,11.34
2023-05-15T05:58:25.497Z,11.19
2023-05-15T05:59:22.524Z,11.01
2023-05-15T06:00:20.502Z,11.13
2023-05-15T06:01:20.526Z,11.35
2023-05-15T06:02:20.554Z,11.64
2023-05-15T06:03:20.630Z,11.68
2023-05-15T06:04:20.533Z,11.80
2023-05-15T06:05:20.473Z,11.96
2023-05-15T06:06:20.478Z,12.23
2023-05-15T06:07:20.474Z,12.41
2023-05-15T06:08:20.445Z,12.49
2023-05-15T06:09:20.431Z,12.78
2023-05-15T06:10:20.412Z,12.84
2023-05-15T06:11:20.447Z,13.04
2023-05-15T06:12:22.851Z,13.21
2023-05-15T06:13:21.386Z,13.29
2023-05-15T06:14:21.275Z,13.33
2023-05-15T06:15:20.380Z,13.36
2023-05-15T06:16:20.492Z,13.46
2023-05-15T06:17:20.346Z,13.36
2023-05-15T06:18:20.342Z,13.52
2023-05-15T06:19:20.391Z,13.52
2023-05-15T06:20:20.330Z,13.55
2023-05-15T06:21:20.318Z,13.69
2023-05-15T06:22:20.296Z,13.73
2023-05-15T06:23:20.412Z,13.81
2023-05-15T06:24:20.935Z,13.92
2023-05-15T06:25:20.281Z,13.92
2023-05-15T06:26:20.274Z,13.94
2023-05-15T06:27:20.252Z,13.98
2023-05-15T06:28:20.240Z,14.10
2023-05-15T06:29:20.244Z,14.09
2023-05-15T06:30:20.240Z,14.27
2023-05-15T06:31:20.281Z,14.28
2023-05-15T06:32:20.224Z,14.34
2023-05-15T06:33:20.192Z,14.42
2023-05-15T06:34:20.185Z,14.42
2023-05-15T06:35:20.206Z,14.46
2023-05-15T06:36:20.154Z,14.31
2023-05-15T06:37:20.166Z,14.49
2023-05-15T06:38:20.145Z,14.47
2023-05-15T06:39:20.162Z,14.56
2023-05-15T06:40:20.863Z,14.39
2023-05-15T06:41:20.196Z,14.56
2023-05-15T06:42:20.110Z,14.68
2023-05-15T06:43:20.091Z,14.75
2023-05-15T06:44:21.893Z,14.98
2023-05-15T06:45:20.103Z,15.03
2023-05-15T06:46:20.074Z,15.11
2023-05-15T06:47:20.056Z,15.31
2023-05-15T06:48:20.101Z,15.54
2023-05-15T06:49:20.053Z,15.68
2023-05-15T06:50:20.023Z,15.81
2023-05-15T06:51:20.021Z,15.97
2023-05-15T06:52:20.073Z,16.03
2023-05-15T06:53:20.161Z,15.81
2023-05-15T06:54:20.019Z,15.86
2023-05-15T06:55:20.005Z,16.14
2023-05-15T06:56:19.988Z,16.15
2023-05-15T06:57:19.980Z,16.16
2023-05-15T06:58:19.955Z,16.41
2023-05-15T06:59:19.949Z,16.27
2023-05-15T07:00:19.946Z,16.50
2023-05-15T07:01:19.965Z,16.26
2023-05-15T07:02:19.920Z,16.41
2023-05-15T07:03:19.895Z,16.34
2023-05-15T07:04:19.958Z,16.38
2023-05-15T07:05:19.890Z,16.20
2023-05-15T07:06:19.873Z,16.23
2023-05-15T07:07:19.901Z,16.18
2023-05-15T07:08:19.874Z,16.31
2023-05-15T07:09:19.936Z,16.35
2023-05-15T07:10:19.844Z,16.23
2023-05-15T07:11:19.820Z,16.09
2023-05-15T07:12:19.849Z,16.06
2023-05-15T07:13:19.811Z,16.06
2023-05-15T07:14:19.793Z,16.01
2023-05-15T07:15:19.796Z,15.93
2023-05-15T07:16:19.772Z,15.85
2023-05-15T07:17:19.805Z,15.96
2023-05-15T07:18:19.756Z,15.97
2023-05-15T07:19:19.814Z,16.12
2023-05-15T07:20:19.734Z,16.04
2023-05-15T07:21:19.737Z,16.11
2023-05-15T07:22:19.735Z,16.09
2023-05-15T07:23:19.705Z,16.16
2023-05-15T07:24:19.692Z,16.22
2023-05-15T07:25:19.952Z,16.26
2023-05-15T07:26:27.932Z,16.35
2023-05-15T07:27:21.667Z,16.40
2023-05-15T07:28:19.669Z,16.40
2023-05-15T07:29:19.631Z,16.53
2023-05-15T07:30:19.620Z,16.60
2023-05-15T07:31:19.703Z,16.63
2023-05-15T07:32:19.644Z,16.62
2023-05-15T07:33:19.599Z,16.60
2023-05-15T07:34:19.586Z,16.55
2023-05-15T07:35:19.609Z,16.45
2023-05-15T07:36:19.603Z,16.48
2023-05-15T07:37:19.573Z,16.42
2023-05-15T07:38:19.604Z,16.60
2023-05-15T07:39:19.618Z,16.58
2023-05-15T07:40:19.600Z,16.70
2023-05-15T07:41:19.541Z,16.62
2023-05-15T07:42:19.505Z,16.74
2023-05-15T07:43:19.529Z,16.74
2023-05-15T07:44:19.492Z,16.78
2023-05-15T07:45:19.596Z,16.89
2023-05-15T07:46:19.511Z,16.89
2023-05-15T07:47:19.470Z,16.98
2023-05-15T07:48:19.489Z,16.93
2023-05-15T07:49:19.443Z,17.06
2023-05-15T07:50:19.459Z,16.96
2023-05-15T07:51:19.416Z,17.04
2023-05-15T07:52:19.430Z,17.14
2023-05-15T07:53:19.405Z,17.11
2023-05-15T07:54:19.420Z,17.07
2023-05-15T07:55:19.382Z,17.15
2023-05-15T07:56:19.376Z,17.15
2023-05-15T07:57:19.370Z,17.15
2023-05-15T07:58:19.356Z,17.29
2023-05-15T07:59:19.374Z,17.36
2023-05-15T08:00:19.343Z,17.44
2023-05-15T08:01:19.319Z,17.51
2023-05-15T08:02:19.473Z,17.48
2023-05-15T08:03:19.569Z,17.53
2023-05-15T08:04:19.422Z,17.38
2023-05-15T08:05:19.282Z,17.50
2023-05-15T08:06:19.279Z,17.53
2023-05-15T08:07:19.269Z,17.69
2023-05-15T08:08:19.278Z,17.63
2023-05-15T08:09:19.239Z,17.70
2023-05-15T08:10:20.251Z,17.79
2023-05-15T08:11:19.230Z,17.84
2023-05-15T08:12:19.214Z,17.91
2023-05-15T08:13:19.259Z,18.00
2023-05-15T08:14:19.217Z,18.00
2023-05-15T08:15:19.190Z,18.09
2023-05-15T08:16:19.241Z,18.22
2023-05-15T08:17:19.176Z,18.12
2023-05-15T08:18:19.153Z,18.07
2023-05-15T08:19:19.194Z,18.17
2023-05-15T08:20:19.135Z,18.04
2023-05-15T08:21:19.187Z,18.00
2023-05-15T08:22:19.139Z,18.06
2023-05-15T08:23:19.155Z,18.09
2023-05-15T08:24:19.114Z,17.85
2023-05-15T08:25:19.098Z,17.97
2023-05-15T08:26:19.093Z,17.94
2023-05-15T08:27:19.105Z,18.06
2023-05-15T08:28:19.059Z,18.07
2023-05-15T08:29:19.040Z,18.03
2023-05-15T08:30:19.064Z,18.25
2023-05-15T08:31:19.111Z,18.24
2023-05-15T08:32:19.037Z,18.29
2023-05-15T08:33:19.014Z,18.39
2023-05-15T08:34:18.999Z,18.36
2023-05-15T08:35:18.994Z,18.39
2023-05-15T08:36:19.055Z,18.44
2023-05-15T08:37:18.974Z,18.46
2023-05-15T08:38:18.960Z,18.57
2023-05-15T08:39:18.943Z,18.54
2023-05-15T08:40:25.608Z,18.55
2023-05-15T08:41:28.859Z,18.46
2023-05-15T08:42:20.936Z,18.50
2023-05-15T08:43:18.904Z,18.46
2023-05-15T08:44:18.903Z,18.40
2023-05-15T08:45:18.898Z,18.27
2023-05-15T08:46:18.942Z,18.36
2023-05-15T08:47:18.873Z,18.29
2023-05-15T08:48:18.892Z,18.24
2023-05-15T08:49:18.846Z,18.17
2023-05-15T08:50:18.883Z,17.99
2023-05-15T08:51:18.858Z,18.17
2023-05-15T08:52:18.814Z,18.13
2023-05-15T08:53:19.842Z,18.22
2023-05-15T08:54:18.809Z,18.10
2023-05-15T08:55:18.816Z,18.09
2023-05-15T08:56:18.787Z,18.27
2023-05-15T08:57:18.757Z,18.40
2023-05-15T08:58:18.757Z,18.49
2023-05-15T08:59:18.770Z,18.58
2023-05-15T09:00:18.782Z,18.68
2023-05-15T09:01:19.765Z,18.77
2023-05-15T09:02:18.725Z,18.90
2023-05-15T09:03:18.860Z,19.11
2023-05-15T09:04:18.735Z,19.20
2023-05-15T09:05:18.700Z,19.33
2023-05-15T09:06:18.680Z,19.36
2023-05-15T09:07:18.669Z,19.48
2023-05-15T09:08:18.669Z,19.63
2023-05-15T09:09:18.681Z,19.83
2023-05-15T09:10:18.716Z,20.05
2023-05-15T09:11:18.635Z,20.03
2023-05-15T09:12:18.619Z,20.08
2023-05-15T09:13:18.670Z,20.06
2023-05-15T09:14:19.112Z,20.27
2023-05-15T09:15:18.602Z,20.31
2023-05-15T09:16:18.623Z,20.50
2023-05-15T09:17:18.579Z,20.35
2023-05-15T09:18:18.593Z,20.31
2023-05-15T09:19:18.660Z,20.35
2023-05-15T09:20:18.582Z,20.33
2023-05-15T09:21:18.542Z,20.43
2023-05-15T09:22:18.567Z,20.58
2023-05-15T09:23:18.537Z,20.58
2023-05-15T09:24:18.516Z,20.71
2023-05-15T09:25:18.499Z,20.74
2023-05-15T09:26:18.484Z,20.83
2023-05-15T09:27:18.495Z,20.91
2023-05-15T09:28:18.487Z,21.01
2023-05-15T09:29:19.055Z,21.08
2023-05-15T09:30:18.569Z,21.09
2023-05-15T09:31:18.470Z,21.11
2023-05-15T09:32:18.473Z,21.24
2023-05-15T09:33:18.450Z,21.32
2023-05-15T09:34:18.420Z,21.30
2023-05-15T09:35:18.400Z,21.01
2023-05-15T09:36:18.426Z,20.84
2023-05-15T09:37:18.403Z,20.77
2023-05-15T09:38:18.365Z,20.69
2023-05-15T09:39:18.358Z,20.66
2023-05-15T09:40:18.380Z,20.79
2023-05-15T09:41:18.380Z,20.72
2023-05-15T09:42:18.331Z,20.72
2023-05-15T09:43:18.323Z,20.62
2023-05-15T09:44:20.642Z,20.42
2023-05-15T09:45:18.318Z,20.35
2023-05-15T09:46:18.404Z,20.39
2023-05-15T09:47:18.468Z,20.34
2023-05-15T09:48:18.334Z,20.34
2023-05-15T09:49:18.289Z,20.21
2023-05-15T09:50:18.325Z,20.21
2023-05-15T09:51:18.259Z,20.43
2023-05-15T09:52:18.237Z,20.56
2023-05-15T09:53:21.327Z,20.68
2023-05-15T09:54:19.209Z,20.72
2023-05-15T09:55:18.222Z,20.59
2023-05-15T09:56:18.208Z,20.34
2023-05-15T09:57:18.183Z,20.34
2023-05-15T09:58:18.177Z,20.28
2023-05-15T09:59:18.169Z,20.31
2023-05-15T10:00:18.245Z,20.15
2023-05-15T10:01:18.190Z,20.00
2023-05-15T10:02:18.149Z,20.15
2023-05-15T10:03:18.159Z,20.12
2023-05-15T10:04:18.141Z,20.00
2023-05-15T10:05:23.574Z,19.84
2023-05-15T10:06:19.137Z,19.78
2023-05-15T10:07:18.114Z,19.65
2023-05-15T10:08:18.075Z,19.53
2023-05-15T10:09:18.088Z,19.53
2023-05-15T10:10:18.094Z,19.54
2023-05-15T10:11:18.047Z,19.70
2023-05-15T10:12:18.030Z,19.87
2023-05-15T10:13:18.031Z,19.70
2023-05-15T10:14:18.033Z,19.70
2023-05-15T10:15:18.006Z,19.51
2023-05-15T10:16:18.080Z,19.36
2023-05-15T10:17:17.990Z,19.48
2023-05-15T10:18:18.025Z,19.58
2023-05-15T10:19:18.019Z,19.69
2023-05-15T10:20:17.983Z,19.65
2023-05-15T10:21:18.003Z,19.53
2023-05-15T10:22:17.943Z,19.43
2023-05-15T10:23:17.955Z,19.31
2023-05-15T10:24:17.929Z,19.40
2023-05-15T10:25:17.913Z,19.48
2023-05-15T10:26:17.900Z,19.66
2023-05-15T10:27:17.889Z,19.75
2023-05-15T10:28:17.903Z,19.87
2023-05-15T10:29:17.891Z,19.90
2023-05-15T10:30:17.864Z,19.90
2023-05-15T10:31:17.874Z,19.51
2023-05-15T10:32:17.911Z,19.43
2023-05-15T10:33:17.848Z,19.28
2023-05-15T10:34:17.851Z,19.11
2023-05-15T10:35:17.818Z,18.80
2023-05-15T10:36:17.799Z,18.67
2023-05-15T10:37:17.848Z,18.82
2023-05-15T10:38:17.777Z,18.64
2023-05-15T10:41:13.048Z,18.40
2023-05-15T10:42:00.741Z,18.37
2023-05-15T10:42:59.713Z,18.33
2023-05-15T10:43:59.699Z,18.54
2023-05-15T10:44:59.700Z,18.46
2023-05-15T10:45:59.684Z,18.55
2023-05-15T10:46:59.719Z,18.57
2023-05-15T10:47:59.702Z,18.79
2023-05-15T10:48:59.658Z,18.68
2023-05-15T10:49:59.644Z,18.79
2023-05-15T10:50:59.683Z,18.79
2023-05-15T10:51:59.638Z,18.86
2023-05-15T10:52:59.612Z,18.76
2023-05-15T10:53:59.598Z,18.73
2023-05-15T10:55:00.307Z,18.92
2023-05-15T10:55:59.626Z,18.97
2023-05-15T10:56:59.563Z,19.02
2023-05-15T10:57:59.562Z,19.14
2023-05-15T10:58:59.556Z,19.13
2023-05-15T10:59:59.550Z,19.13
2023-05-15T11:00:59.645Z,19.02
2023-05-15T11:01:59.519Z,18.97
2023-05-15T11:02:59.528Z,18.94
2023-05-15T11:03:59.520Z,18.94
2023-05-15T11:04:59.552Z,18.99
2023-05-15T11:05:59.515Z,18.91
2023-05-15T11:06:59.462Z,18.86
2023-05-15T11:07:59.452Z,19.10
2023-05-15T11:08:59.462Z,19.36
2023-05-15T11:09:59.468Z,19.60
2023-05-15T11:10:59.432Z,19.76
2023-05-15T11:11:59.415Z,19.70
2023-05-15T11:12:59.436Z,19.60
2023-05-15T11:14:00.507Z,19.39
2023-05-15T11:15:01.530Z,19.42
2023-05-15T11:16:00.514Z,19.35
2023-05-15T11:17:00.788Z,19.06
2023-05-15T11:18:00.556Z,19.01
2023-05-15T11:19:00.506Z,18.92
2023-05-15T11:20:00.486Z,18.92
2023-05-15T11:21:00.449Z,18.87
2023-05-15T11:22:00.440Z,18.76
2023-05-15T11:23:00.440Z,18.70
2023-05-15T11:24:00.447Z,18.65
2023-05-15T11:25:00.425Z,18.67
2023-05-15T11:26:00.397Z,18.76
2023-05-15T11:27:00.391Z,18.84
2023-05-15T11:28:00.406Z,18.91
2023-05-15T11:29:00.372Z,18.87
2023-05-15T11:30:00.356Z,18.90
2023-05-15T11:31:00.389Z,18.77
2023-05-15T11:32:00.346Z,18.80
2023-05-15T11:33:00.388Z,18.94
2023-05-15T11:34:00.322Z,19.15
2023-05-15T11:35:00.321Z,19.29
2023-05-15T11:36:00.310Z,19.50
2023-05-15T11:37:00.291Z,19.58
2023-05-15T11:38:00.318Z,19.54
2023-05-15T11:39:00.287Z,19.42
2023-05-15T11:40:00.253Z,19.47
2023-05-15T11:41:00.260Z,19.53
2023-05-15T11:42:01.032Z,19.38
2023-05-15T11:43:00.255Z,19.36
2023-05-15T11:44:00.221Z,19.32
2023-05-15T11:45:00.219Z,19.18
2023-05-15T11:46:00.279Z,18.92
2023-05-15T11:47:00.278Z,18.86
2023-05-15T11:48:00.272Z,18.77
2023-05-15T11:49:00.262Z,18.67
2023-05-15T11:50:01.194Z,18.58
2023-05-15T11:51:00.137Z,18.59
2023-05-15T11:52:00.162Z,18.46
2023-05-15T11:53:00.120Z,18.57
2023-05-15T11:54:00.140Z,18.57
2023-05-15T11:55:00.158Z,18.55
2023-05-15T11:56:00.163Z,18.55
2023-05-15T11:57:00.166Z,18.49
2023-05-15T11:58:00.085Z,18.52
2023-05-15T11:59:00.075Z,18.64
2023-05-15T12:00:00.061Z,18.73
2023-05-15T12:01:00.065Z,18.64
2023-05-15T12:02:00.141Z,18.67
2023-05-15T12:03:00.183Z,18.47
2023-05-15T12:04:00.336Z,18.28
2023-05-15T12:05:00.091Z,18.39
2023-05-15T12:06:00.497Z,18.40
2023-05-15T12:07:02.898Z,18.44
2023-05-15T12:07:59.981Z,18.55
2023-05-15T12:08:59.974Z,18.64
2023-05-15T12:10:00.973Z,18.47
2023-05-15T12:10:59.985Z,18.50
2023-05-15T12:11:59.946Z,18.46
2023-05-15T12:12:59.926Z,18.61
2023-05-15T12:13:59.934Z,18.57
2023-05-15T12:14:59.962Z,18.54
2023-05-15T12:16:00.027Z,18.57
2023-05-15T12:16:59.926Z,18.59
2023-05-15T12:17:59.914Z,18.64
2023-05-15T12:18:59.944Z,18.70
2023-05-15T12:19:59.883Z,18.50
2023-05-15T12:20:59.882Z,18.64
2023-05-15T12:21:59.861Z,18.62
2023-05-15T12:22:59.838Z,18.70
2023-05-15T12:24:07.732Z,18.64
2023-05-15T12:25:01.855Z,18.77
2023-05-15T12:25:59.800Z,18.77
2023-05-15T12:26:59.805Z,18.77
2023-05-15T12:27:59.827Z,18.87
2023-05-15T12:28:59.772Z,18.97
2023-05-15T12:29:59.775Z,19.08
2023-05-15T12:30:59.751Z,19.25
2023-05-15T12:31:59.777Z,19.29
2023-05-15T12:32:59.769Z,19.46
2023-05-15T12:33:59.757Z,19.40
2023-05-15T12:34:59.736Z,19.32
2023-05-15T12:36:01.754Z,19.25
2023-05-15T12:37:00.703Z,19.10
2023-05-15T12:37:59.683Z,18.95
2023-05-15T12:38:59.721Z,18.97
2023-05-15T12:39:59.680Z,19.14
2023-05-15T12:40:59.661Z,19.24
2023-05-15T12:41:59.650Z,19.33
2023-05-15T12:42:59.642Z,19.02
2023-05-15T12:43:59.654Z,18.62
2023-05-15T12:44:59.600Z,18.29
2023-05-15T12:46:00.767Z,18.07
2023-05-15T12:46:59.589Z,17.79
2023-05-15T12:47:59.640Z,17.64
2023-05-15T12:48:59.622Z,17.57
2023-05-15T12:49:59.560Z,17.38
2023-05-15T12:50:59.553Z,17.14
2023-05-15T12:51:59.537Z,16.78
2023-05-15T12:52:59.535Z,16.23
2023-05-15T12:53:59.538Z,16.16
2023-05-15T12:54:59.523Z,16.06
2023-05-15T12:55:59.507Z,15.88
2023-05-15T12:57:01.358Z,15.85
2023-05-15T12:57:59.501Z,15.72
2023-05-15T12:58:59.475Z,15.79
2023-05-15T12:59:59.462Z,15.81
2023-05-15T13:00:59.507Z,15.75
2023-05-15T13:01:59.510Z,15.76
2023-05-15T13:02:59.509Z,15.82
2023-05-15T13:03:59.539Z,15.85
2023-05-15T13:04:59.408Z,16.06